Latest Weather Observations for Coondewanna

IDW60801

Issued at 1:03 pm WST Friday 26 August 2016 (issued every 30 minutes, with the page automatically refreshed every 10 minutes)

About weather observations | Map of weather stations | Latest weather observations for WA | Other Formats
Station Details ID: 505051 Name: COONDEWANNA Lat: -22.96 Lon: 118.81 Height: 697.63 m
Data from the previous 72 hours. | See also: Recent months for locations in Western Australia
Date/Time
WST
Temp
°C
App
Temp
°C
Dew
Point
°C
Rel
Hum
%
Delta-T
°C
Wind Press
QNH
hPa
Press
MSL
hPa
Rain since
9am
mm
Dir  Spd
km/h
Gust
km/h
Spd
kts
Gust
kts
26/01:00pm 21.4 15.4 -3.1 19 10.7 ENE 19 28 10 15 1017.7 1015.6 0.0
26/12:30pm 21.1 15.8 -3.4 19 10.6 NNE 15 28 8 15 1018.6 1016.5 0.0
26/12:00pm 20.5 13.9 -3.2 20 10.2 NNE 22 32 12 17 1019.1 1017.0 0.0
26/11:30am 19.9 14.1 -1.8 23 9.6 ENE 19 30 10 16 1019.6 1017.5 0.0
26/11:00am 19.5 12.7 -1.6 24 9.3 E 24 32 13 17 1020.0 1017.9 0.0
26/10:30am 18.4 12.0 -1.4 26 8.7 ENE 22 33 12 18 1020.4 1018.3 0.0
26/10:00am 17.9 11.6 -1.3 27 8.4 ENE 22 35 12 19 1020.8 1018.7 0.0
26/09:30am 16.5 8.7 -1.1 30 7.7 ENE 30 39 16 21 1020.8 1018.7 0.0
26/09:00am 16.0 8.9 -1.1 31 7.4 ENE 26 35 14 19 1020.8 1018.7 0.0
26/08:30am 15.1 8.0 -1.0 33 6.9 ENE 26 37 14 20 1020.5 1018.4 0.0
26/08:00am 14.2 7.1 -1.0 35 6.5 ENE 26 39 14 21 1020.4 1018.3 0.0
26/07:30am 12.9 8.7 -1.1 38 5.9 E 11 15 6 8 1020.4 1018.3 0.0
26/07:15am 12.1 8.0 -0.4 42 5.3 E 11 15 6 8 1020.3 1018.2 0.0
26/07:00am 7.1 4.1 -1.8 53 3.5 E 4 9 2 5 1020.3 1018.2 0.0
26/06:30am 5.3 2.6 -2.3 58 2.9 NE 2 9 1 5 1020.1 1018.0 0.0
26/06:00am 4.8 0.6 -3.5 55 3.0 NE 9 9 5 5 1019.6 1017.5 0.0
26/05:30am 6.1 2.6 -2.7 53 3.3 ESE 6 7 3 4 1019.4 1017.3 0.0
26/05:00am 6.8 4.4 -2.9 50 3.7 CALM 0 0 0 0 1019.3 1017.2 0.0
26/04:30am 6.4 2.9 -3.0 51 3.5 ESE 6 9 3 5 1019.3 1017.2 0.0
26/04:00am 9.5 5.8 -3.1 41 4.9 ESE 7 11 4 6 1019.1 1017.0 0.0
26/03:45am 11.4 7.1 -1.7 40 5.4 ESE 11 17 6 9 1019.0 1016.9 0.0
26/03:30am 6.4 2.7 -3.2 50 3.6 E 7 11 4 6 1018.9 1016.8 0.0
26/03:00am 6.3 2.7 -3.3 50 3.6 E 6 9 3 5 1018.8 1016.7 0.0
26/02:30am 6.5 3.2 -4.0 47 3.9 E 4 6 2 3 1018.9 1016.8 0.0
26/02:00am 8.7 4.5 -3.5 42 4.6 E 9 13 5 7 1019.0 1016.9 0.0
26/01:30am 9.6 5.5 -3.3 40 5.0 E 9 11 5 6 1019.5 1017.4 0.0
26/01:00am 12.0 7.1 -3.4 34 6.1 E 13 19 7 10 1019.6 1017.5 0.0
26/12:30am 12.3 7.5 -2.7 35 6.1 E 13 17 7 9 1019.8 1017.7 0.0
26/12:00am 8.7 4.9 -3.5 42 4.6 ENE 7 11 4 6 1020.0 1017.9 0.0
 
Date/Time
WST
Temp
°C
App
Temp
°C
Dew
Point
°C
Rel
Hum
%
Delta-T
°C
Wind Press
QNH
hPa
Press
MSL
hPa
Rain since
9am
mm
Dir  Spd
km/h
Gust
km/h
Spd
kts
Gust
kts
25/11:30pm 8.2 4.4 -3.6 43 4.5 E 7 11 4 6 1020.0 1017.9 0.0
25/11:00pm 9.8 6.1 -3.1 40 5.0 E 7 9 4 5 1020.3 1018.2 0.0
25/10:30pm 10.4 6.8 -3.6 37 5.4 E 6 7 3 4 1020.6 1018.5 0.0
25/10:00pm 12.0 8.2 -3.8 33 6.2 E 7 9 4 5 1020.8 1018.7 0.0
25/09:30pm 12.7 8.5 -3.5 32 6.5 E 9 11 5 6 1020.8 1018.7 0.0
25/09:00pm 13.1 8.9 -3.6 31 6.6 E 9 11 5 6 1020.8 1018.7 0.0
25/08:30pm 13.8 9.6 -3.9 29 7.1 E 9 11 5 6 1020.7 1018.6 0.0
25/08:00pm 14.7 10.5 -3.6 28 7.4 E 9 11 5 6 1020.5 1018.4 0.0
25/07:30pm 15.8 11.2 -4.2 25 8.1 E 11 13 6 7 1020.2 1018.1 0.0
25/07:00pm 16.7 12.5 -3.9 24 8.5 E 9 13 5 7 1019.8 1017.7 0.0
25/06:30pm 18.4 13.4 -4.3 21 9.4 E 13 15 7 8 1019.5 1017.4 0.0
25/06:00pm 19.5 14.5 -4.7 19 10.0 E 13 17 7 9 1019.1 1017.0 0.0
25/05:30pm 20.8 15.0 -4.4 18 10.7 ENE 17 24 9 13 1018.8 1016.7 0.0
25/05:00pm 21.4 15.2 -4.6 17 11.0 ENE 19 26 10 14 1018.8 1016.7 0.0
25/04:30pm 21.5 15.7 -4.5 17 11.1 E 17 26 9 14 1018.6 1016.5 0.0
25/04:00pm 21.9 15.8 -4.2 17 11.2 NE 19 30 10 16 1018.4 1016.2 0.0
25/03:30pm 22.0 16.6 -4.1 17 11.2 NE 15 22 8 12 1018.3 1016.1 0.0
25/03:00pm 21.9 15.2 -4.2 17 11.2 NE 22 32 12 17 1018.4 1016.2 0.0
25/02:30pm 21.7 15.4 -3.6 18 11.0 ENE 20 30 11 16 1018.5 1016.4 0.0
25/02:00pm 21.6 15.5 -3.7 18 10.9 ENE 19 28 10 15 1018.6 1016.5 0.0
25/01:30pm 21.6 15.0 -3.0 19 10.8 ESE 22 33 12 18 1018.8 1016.7 0.0
25/01:00pm 20.6 13.9 -3.8 19 10.4 ESE 22 33 12 18 1019.1 1017.0 0.0
25/12:30pm 20.1 14.1 -2.9 21 10.0 ENE 19 32 10 17 1019.5 1017.4 0.0
25/12:00pm 19.9 13.8 -2.4 22 9.7 ENE 20 35 11 19 1020.0 1017.9 0.0
25/11:30am 19.2 12.4 -1.8 24 9.2 ENE 24 39 13 21 1020.4 1018.3 0.0
25/11:00am 18.9 11.6 -2.7 23 9.3 E 26 37 14 20 1020.8 1018.7 0.0
25/10:30am 18.5 10.9 -2.4 24 9.0 E 28 35 15 19 1021.1 1019.1 0.0
25/10:00am 18.5 10.1 -2.4 24 9.0 E 32 43 17 23 1021.1 1019.1 0.0
25/09:30am 17.5 9.9 -2.2 26 8.5 E 28 37 15 20 1021.0 1019.0 0.0
25/09:00am 16.5 9.0 -1.6 29 7.8 ENE 28 41 15 22 1020.9 1018.8 0.0
25/08:30am 15.0 7.9 -1.5 32 7.0 E 26 37 14 20 1020.8 1018.7 0.0
25/08:00am 13.7 6.9 -1.5 35 6.4 E 24 32 13 17 1020.7 1018.6 0.0
25/07:30am 12.4 8.1 -1.5 38 5.8 ENE 11 20 6 11 1020.4 1018.3 0.0
25/07:18am 11.1 7.6 -1.0 43 5.0 ESE 7 11 4 6 1020.4 1018.3 0.0
25/07:00am 6.0 2.5 -2.6 54 3.2 ESE 6 7 3 4 1020.3 1018.2 0.0
25/06:30am 8.0 3.7 -2.0 49 3.9 ESE 11 13 6 7 1020.1 1018.0 0.0
25/06:00am 8.4 3.7 -2.0 48 4.1 E 13 15 7 8 1019.5 1017.4 0.0
25/05:30am 7.7 3.4 -2.0 50 3.8 E 11 13 6 7 1019.2 1017.1 0.0
25/05:00am 9.0 4.7 -2.0 46 4.4 E 11 13 6 7 1019.0 1016.9 0.0
25/04:30am 9.0 4.3 -1.7 47 4.3 E 13 15 7 8 1018.6 1016.5 0.0
25/04:00am 7.0 2.9 -3.2 48 3.8 E 9 13 5 7 1018.7 1016.6 0.0
25/03:30am 9.8 5.0 -2.2 43 4.8 E 13 15 7 8 1018.4 1016.2 0.0
25/03:00am 9.4 5.0 -2.2 44 4.6 E 11 13 6 7 1018.4 1016.2 0.0
25/02:30am 9.4 4.7 -1.9 45 4.5 E 13 15 7 8 1018.6 1016.5 0.0
25/02:00am 7.6 4.0 -2.1 50 3.8 E 7 11 4 6 1018.8 1016.7 0.0
25/01:30am 10.3 6.0 -2.0 42 4.9 E 11 15 6 8 1018.9 1016.8 0.0
25/01:00am 11.3 6.6 -2.1 39 5.4 E 13 13 7 7 1019.0 1016.9 0.0
25/12:30am 11.8 7.4 -2.4 37 5.7 E 11 13 6 7 1019.2 1017.1 0.0
25/12:00am 13.2 8.4 -2.3 34 6.4 E 13 20 7 11 1019.3 1017.2 0.0
 
Date/Time
WST
Temp
°C
App
Temp
°C
Dew
Point
°C
Rel
Hum
%
Delta-T
°C
Wind Press
QNH
hPa
Press
MSL
hPa
Rain since
9am
mm
Dir  Spd
km/h
Gust
km/h
Spd
kts
Gust
kts
24/11:30pm 13.8 9.0 -2.2 33 6.6 E 13 17 7 9 1019.5 1017.4 0.0
24/11:00pm 13.4 9.0 -2.5 33 6.5 E 11 13 6 7 1019.6 1017.5 0.0
24/10:30pm 14.3 9.1 -2.6 31 7.0 E 15 20 8 11 1019.6 1017.5 0.0
24/10:00pm 14.2 9.0 -3.1 30 7.0 E 15 17 8 9 1019.6 1017.5 0.0
24/09:30pm 14.6 9.8 -2.8 30 7.2 E 13 17 7 9 1019.5 1017.4 0.0
24/09:00pm 14.5 9.7 -2.8 30 7.1 E 13 15 7 8 1019.6 1017.5 0.0
24/08:30pm 13.9 9.1 -2.9 31 6.9 ESE 13 13 7 7 1019.5 1017.4 0.0
24/08:00pm 14.6 10.2 -2.8 30 7.2 E 11 15 6 8 1019.4 1017.3 0.0
24/07:30pm 15.2 10.8 -2.7 29 7.4 E 11 13 6 7 1019.2 1017.1 0.0
24/07:00pm 15.9 11.9 -2.6 28 7.7 E 9 11 5 6 1018.9 1016.8 0.0
24/06:30pm 16.9 12.8 -2.7 26 8.3 ESE 9 11 5 6 1018.7 1016.6 0.0
24/06:00pm 18.7 14.3 -2.8 23 9.2 ESE 11 13 6 7 1018.3 1016.1 0.0
24/05:30pm 19.7 14.4 -3.2 21 9.8 ESE 15 20 8 11 1018.0 1015.9 0.0
24/05:00pm 20.1 15.3 -2.9 21 10.0 ESE 13 19 7 10 1017.6 1015.5 0.0
24/04:30pm 20.1 16.5 -2.3 22 9.8 ESE 7 15 4 8 1017.4 1015.3 0.0
24/04:00pm 20.6 16.9 -2.5 21 10.1 ENE 7 15 4 8 1017.2 1015.0 0.0
24/03:30pm 20.7 15.5 -2.4 21 10.2 NE 15 19 8 10 1017.0 1014.8 0.0
24/03:00pm 20.0 14.9 -2.3 22 9.8 E 15 22 8 12 1016.9 1014.7 0.0
24/02:30pm 19.6 14.9 -2.1 23 9.5 ENE 13 28 7 15 1017.0 1014.8 0.0
24/02:00pm 19.9 15.2 -1.8 23 9.6 ESE 13 22 7 12 1017.3 1015.2 0.0
24/01:30pm 18.3 13.6 -2.0 25 8.8 E 13 30 7 16 1017.6 1015.5 0.0
24/01:00pm 19.7 14.7 -1.4 24 9.4 E 15 22 8 12 1018.1 1016.0 0.0
24/12:30pm 18.1 12.3 -1.2 27 8.5 E 19 28 10 15 1018.5 1016.4 0.0
24/12:00pm 17.8 11.9 -0.5 29 8.1 ENE 20 32 11 17 1019.1 1017.0 0.0
24/11:30am 16.9 10.6 -0.8 30 7.8 E 22 32 12 17 1019.4 1017.3 0.0
24/11:00am 16.9 10.6 -0.8 30 7.8 E 22 35 12 19 1019.8 1017.7 0.0
24/10:30am 15.9 9.7 -0.3 33 7.1 ENE 22 33 12 18 1020.1 1018.0 0.0
24/10:00am 15.2 9.1 0.2 36 6.6 ENE 22 32 12 17 1020.3 1018.2 0.0
24/09:30am 14.5 8.7 0.0 37 6.3 E 20 32 11 17 1020.5 1018.4 0.0
24/09:00am 13.4 8.2 0.4 41 5.7 E 17 24 9 13 1020.5 1018.4 0.0
24/08:30am 12.0 5.9 0.5 45 5.0 ESE 22 26 12 14 1020.6 1018.5 0.0
24/08:00am 10.6 4.1 0.1 48 4.4 E 24 32 13 17 1020.4 1018.3 0.0
24/07:30am 9.7 4.5 -0.2 50 4.1 E 17 22 9 12 1020.2 1018.1 0.0
24/07:00am 8.5 4.7 -0.5 53 3.7 E 9 15 5 8 1019.8 1017.7 0.0
24/06:30am 7.3 3.5 -0.9 56 3.3 ENE 9 15 5 8 1019.4 1017.3 0.0
24/06:00am 8.0 3.4 -1.0 53 3.6 E 13 17 7 9 1019.1 1017.0 0.0
24/05:30am 7.5 3.6 -1.2 54 3.5 E 9 11 5 6 1018.9 1016.8 0.0
24/05:00am 7.7 3.4 -1.5 52 3.6 E 11 15 6 8 1018.7 1016.6 0.0
24/04:30am 8.0 4.1 -1.5 51 3.8 E 9 11 5 6 1018.4 1016.2 0.0
24/04:00am 8.8 4.5 -1.6 48 4.1 E 11 19 6 10 1018.1 1016.0 0.0
24/03:30am 8.9 4.2 -1.8 47 4.3 E 13 17 7 9 1017.9 1015.8 0.0
24/03:00am 9.1 4.8 -1.9 46 4.4 E 11 15 6 8 1017.9 1015.8 0.0
24/02:30am 9.7 3.6 -2.3 43 4.8 SE 20 26 11 14 1017.9 1015.8 0.0
24/02:00am 9.9 4.0 -2.4 42 4.9 SE 19 28 10 15 1018.1 1016.0 0.0
24/01:30am 9.7 4.1 -2.6 42 4.8 SE 17 20 9 11 1018.3 1016.1 0.0
24/01:00am 10.4 4.8 -2.9 39 5.2 SE 17 20 9 11 1018.4 1016.2 0.0
24/12:30am 10.5 5.3 -2.8 39 5.3 ESE 15 19 8 10 1018.5 1016.4 0.0
24/12:00am 10.4 4.8 -2.9 39 5.2 ESE 17 19 9 10 1018.5 1016.4 0.0
 
Date/Time
WST
Temp
°C
App
Temp
°C
Dew
Point
°C
Rel
Hum
%
Delta-T
°C
Wind Press
QNH
hPa
Press
MSL
hPa
Rain since
9am
mm
Dir  Spd
km/h
Gust
km/h
Spd
kts
Gust
kts
23/11:30pm 10.4 5.2 -2.9 39 5.2 ESE 15 17 8 9 1018.7 1016.6 0.0
23/11:00pm 10.0 5.9 -3.0 40 5.1 ESE 9 15 5 8 1018.8 1016.7 0.0
23/10:30pm 10.9 6.1 -2.8 38 5.4 SE 13 17 7 9 1018.7 1016.6 0.0
23/10:00pm 10.8 6.3 -2.9 38 5.4 SE 11 15 6 8 1018.7 1016.6 0.0
23/09:30pm 11.1 7.0 -3.4 36 5.7 SE 9 9 5 5 1018.7 1016.6 0.0
23/09:00pm 12.8 8.7 -3.0 33 6.4 SE 9 11 5 6 1018.7 1016.6 0.0
23/08:30pm 13.3 8.8 -3.0 32 6.6 SSE 11 13 6 7 1018.1 1016.0 0.0
23/08:00pm 13.7 8.8 -3.1 31 6.8 SSE 13 15 7 8 1017.9 1015.8 0.0
23/07:30pm 14.3 9.4 -3.5 29 7.2 SE 13 19 7 10 1017.5 1015.4 0.0
23/07:00pm 14.6 9.3 -3.7 28 7.4 SSE 15 20 8 11 1017.2 1015.0 0.0
23/06:30pm 14.9 9.6 -3.4 28 7.5 SSE 15 17 8 9 1016.8 1014.6 0.0
23/06:00pm 15.8 10.0 -4.2 25 8.1 SSE 17 22 9 12 1016.4 1014.3 0.0
23/05:30pm 16.7 10.9 -4.5 23 8.6 SSE 17 22 9 12 1016.5 1014.4 0.0
23/05:00pm 17.1 11.7 -4.8 22 8.9 S 15 20 8 11 1016.1 1014.0 0.0
23/04:30pm 17.6 11.8 -4.3 22 9.0 SSE 17 22 9 12 1015.9 1013.7 0.0
23/04:00pm 18.2 12.2 -3.2 23 9.1 SE 19 26 10 14 1015.6 1013.4 0.0
23/03:30pm 18.3 12.0 -4.4 21 9.4 SSE 20 28 11 15 1015.4 1013.2 0.0
23/03:00pm 17.8 11.0 -5.4 20 9.3 S 22 37 12 20 1015.5 1013.3 0.0
23/02:30pm 17.0 11.3 -3.7 24 8.6 SSE 17 28 9 15 1015.5 1013.3 0.0
23/02:00pm 16.7 10.4 -3.9 24 8.5 SE 20 30 11 16 1015.5 1013.3 0.0
23/01:30pm 17.1 9.3 -3.6 24 8.6 ESE 28 37 15 20 1015.9 1013.7 0.0

Other Formats:

Comma delimited format used in spreadsheet applications
http://www.bom.gov.au/fwo/IDW60801/IDW60801.99312.axf

JavaScript Object Notation format (JSON) in row-major order
http://www.bom.gov.au/fwo/IDW60801/IDW60801.99312.json